Time;durP1;ratioP1;P1;durP2;ratioP2;P2;SDS_P1;SDS_P2;PMS_P1;PMS_P2;Temp;Humidity;BMP_temperature;BMP_pressure;BME280_temperature;BME280_humidity;BME280_pressure;Samples;Min_cycle;Max_cycle;Signal;HPM_P1;HPM_P2
2023/06/16 00:00:12;;;;;;;2.83;1.57;;;30.80;37.10;;;;;;5060404;27;92024;-51
2023/06/16 00:02:41;;;;;;;2.23;1.90;;;30.80;36.40;;;;;;5059452;27;92152;-51
2023/06/16 00:05:12;;;;;;;2.23;1.70;;;30.80;36.40;;;;;;5043185;27;95118;-51
2023/06/16 00:07:40;;;;;;;1.97;1.70;;;30.90;36.60;;;;;;5039127;28;94723;-51
2023/06/16 00:10:09;;;;;;;1.63;1.47;;;30.80;36.50;;;;;;5039610;28;92071;-51
2023/06/16 00:12:37;;;;;;;2.40;1.40;;;30.80;36.50;;;;;;5038968;28;92169;-51
2023/06/16 00:15:06;;;;;;;2.77;1.80;;;30.90;36.70;;;;;;5038661;27;93323;-51
2023/06/16 00:17:36;;;;;;;1.70;1.40;;;30.80;36.60;;;;;;5041325;27;94144;-51
2023/06/16 00:20:07;;;;;;;1.70;1.33;;;30.80;36.60;;;;;;5059914;27;92065;-51
2023/06/16 00:22:36;;;;;;;1.73;1.57;;;30.80;36.70;;;;;;5060332;27;91193;-51
2023/06/16 00:25:05;;;;;;;2.80;1.47;;;30.80;36.70;;;;;;5059429;27;94064;-51
2023/06/16 00:27:34;;;;;;;3.00;1.63;;;30.80;36.70;;;;;;5059130;27;93855;-51
2023/06/16 00:30:02;;;;;;;1.53;1.33;;;30.80;36.80;;;;;;5059003;27;92801;-51
2023/06/16 00:32:30;;;;;;;1.33;1.20;;;30.80;36.80;;;;;;5059122;27;92125;-51
2023/06/16 00:34:59;;;;;;;2.07;1.17;;;30.80;36.90;;;;;;5058464;27;94090;-51
2023/06/16 00:37:27;;;;;;;3.17;1.50;;;30.80;36.90;;;;;;5058576;27;93758;-51
2023/06/16 00:39:56;;;;;;;3.73;1.57;;;30.80;36.90;;;;;;5043594;27;92194;-51
2023/06/16 00:42:25;;;;;;;2.20;1.57;;;30.80;36.90;;;;;;5059488;27;92216;-51
2023/06/16 00:44:53;;;;;;;2.03;1.57;;;30.80;37.00;;;;;;5049852;27;94154;-51
2023/06/16 00:47:21;;;;;;;1.50;1.40;;;30.70;36.90;;;;;;5038819;28;93343;-51
2023/06/16 00:49:49;;;;;;;1.40;1.30;;;30.80;37.00;;;;;;5039461;28;92003;-51
2023/06/16 00:52:17;;;;;;;2.20;1.50;;;30.70;36.90;;;;;;5048013;27;92138;-51
2023/06/16 00:54:45;;;;;;;1.83;1.27;;;30.70;37.00;;;;;;5058318;27;95190;-51
2023/06/16 00:57:15;;;;;;;2.20;1.40;;;30.80;37.00;;;;;;5048301;27;95064;-51
2023/06/16 00:59:43;;;;;;;1.47;1.27;;;30.70;37.00;;;;;;5038853;28;91787;-51
2023/06/16 01:02:13;;;;;;;3.70;1.50;;;30.70;37.00;;;;;;5038875;28;92090;-51
2023/06/16 01:04:41;;;;;;;2.00;1.17;;;30.70;37.00;;;;;;5038149;28;94003;-51
2023/06/16 01:07:12;;;;;;;1.37;1.23;;;30.80;37.10;;;;;;5038494;28;93786;-51
2023/06/16 01:09:44;;;;;;;2.33;1.23;;;30.70;37.10;;;;;;5051078;27;91976;-51
2023/06/16 01:12:16;;;;;;;2.17;1.30;;;30.70;37.10;;;;;;5059315;27;91215;-51
2023/06/16 01:14:49;;;;;;;1.33;1.20;;;30.70;37.20;;;;;;5058667;27;94401;-51
2023/06/16 01:17:17;;;;;;;4.37;1.70;;;30.70;37.20;;;;;;5058065;27;93783;-51
2023/06/16 01:19:53;;;;;;;1.40;1.30;;;30.70;37.20;;;;;;5057413;27;93024;-51
2023/06/16 01:22:30;;;;;;;2.23;1.30;;;30.70;37.20;;;;;;5058698;27;92197;-51
2023/06/16 01:25:00;;;;;;;1.50;1.27;;;30.70;37.30;;;;;;5058219;27;94440;-51
2023/06/16 01:27:30;;;;;;;1.60;0.90;;;30.70;37.30;;;;;;5058024;27;92516;-51
2023/06/16 01:29:58;;;;;;;1.40;1.20;;;30.70;37.30;;;;;;5058815;27;91960;-51
2023/06/16 01:32:26;;;;;;;1.97;1.23;;;30.70;37.30;;;;;;5058742;27;92082;-51
2023/06/16 01:34:54;;;;;;;2.53;1.90;;;30.70;37.30;;;;;;5058469;27;94112;-51
2023/06/16 01:37:22;;;;;;;3.17;2.03;;;30.70;37.30;;;;;;5058592;27;93934;-52
2023/06/16 01:39:51;;;;;;;3.17;2.13;;;30.70;37.30;;;;;;5058752;27;92701;-51
2023/06/16 01:42:20;;;;;;;2.70;2.17;;;30.60;37.30;;;;;;5057622;27;91859;-51
2023/06/16 01:44:49;;;;;;;3.17;1.97;;;30.60;37.30;;;;;;5037401;28;95077;-51
2023/06/16 01:47:17;;;;;;;3.67;2.07;;;30.60;37.30;;;;;;5037979;28;93750;-51
2023/06/16 01:49:45;;;;;;;4.33;2.07;;;30.60;37.30;;;;;;5038292;28;92452;-51
2023/06/16 01:52:14;;;;;;;3.40;2.00;;;30.60;37.30;;;;;;5037478;28;92003;-51
2023/06/16 01:54:42;;;;;;;2.87;2.57;;;30.60;37.30;;;;;;5037450;28;94106;-51
2023/06/16 01:57:11;;;;;;;3.53;2.20;;;30.60;37.30;;;;;;5037806;28;94117;-51
2023/06/16 01:59:40;;;;;;;3.50;2.20;;;30.60;38.00;;;;;;5041797;27;92025;-51
2023/06/16 02:02:11;;;;;;;3.00;2.13;;;30.60;37.40;;;;;;5058751;27;91457;-51
2023/06/16 02:04:39;;;;;;;2.40;1.90;;;30.60;37.40;;;;;;5058218;27;94137;-51
2023/06/16 02:07:09;;;;;;;3.23;2.00;;;30.60;37.30;;;;;;5057738;27;93852;-51
2023/06/16 02:09:37;;;;;;;3.20;1.93;;;30.60;37.30;;;;;;5057962;27;92987;-51
2023/06/16 02:12:06;;;;;;;4.23;2.13;;;30.60;37.40;;;;;;5058342;27;92332;-51
2023/06/16 02:14:35;;;;;;;2.13;1.73;;;30.60;37.40;;;;;;5058028;27;93117;-51
2023/06/16 02:17:06;;;;;;;3.10;2.10;;;30.50;37.30;;;;;;5057050;27;93914;-51
2023/06/16 02:19:34;;;;;;;4.37;1.93;;;30.50;37.30;;;;;;5058415;27;91732;-51
2023/06/16 02:22:02;;;;;;;2.10;1.90;;;30.50;37.30;;;;;;5056301;27;92115;-52
2023/06/16 02:24:31;;;;;;;2.17;1.60;;;30.50;37.30;;;;;;5057829;27;94560;-51
2023/06/16 02:27:00;;;;;;;3.27;2.13;;;30.50;38.00;;;;;;5057835;27;93052;-51
2023/06/16 02:29:28;;;;;;;2.53;1.77;;;30.50;37.30;;;;;;5057920;27;92017;-51
2023/06/16 02:31:56;;;;;;;2.37;1.90;;;30.50;37.30;;;;;;5057838;27;92109;-51
2023/06/16 02:34:25;;;;;;;2.23;1.80;;;30.50;37.30;;;;;;5047841;27;95144;-51
2023/06/16 02:36:53;;;;;;;2.27;1.70;;;30.50;37.30;;;;;;5056983;27;94893;-51
2023/06/16 02:39:22;;;;;;;2.63;1.90;;;30.50;37.30;;;;;;5058643;27;91907;-51
2023/06/16 02:41:50;;;;;;;2.47;1.67;;;30.50;37.30;;;;;;5061422;27;91984;-51
2023/06/16 02:44:18;;;;;;;2.63;1.73;;;30.50;37.30;;;;;;5061385;27;94125;-51
2023/06/16 02:46:46;;;;;;;3.03;2.33;;;30.50;37.30;;;;;;5060776;27;93918;-51
2023/06/16 02:49:16;;;;;;;2.30;2.00;;;30.50;37.30;;;;;;5061314;27;91919;-51
2023/06/16 02:51:45;;;;;;;2.73;2.30;;;30.40;37.30;;;;;;5061160;27;91366;-51
2023/06/16 02:54:13;;;;;;;5.67;2.30;;;30.50;37.30;;;;;;5060609;27;93137;-51
2023/06/16 02:56:41;;;;;;;4.10;2.20;;;30.40;37.20;;;;;;5060586;27;93860;-51
2023/06/16 02:59:10;;;;;;;2.47;1.97;;;30.40;37.20;;;;;;5060416;27;92907;-51
2023/06/16 03:01:38;;;;;;;3.00;1.97;;;30.40;37.20;;;;;;5061094;27;91762;-51
2023/06/16 03:04:06;;;;;;;3.03;2.13;;;30.40;37.20;;;;;;5060650;27;94327;-51
2023/06/16 03:06:35;;;;;;;4.87;2.17;;;30.40;37.30;;;;;;5043293;27;94129;-51
2023/06/16 03:09:05;;;;;;;4.63;2.20;;;30.40;37.20;;;;;;5037753;28;92577;-51
2023/06/16 03:11:33;;;;;;;4.33;2.17;;;30.40;37.20;;;;;;5037283;28;92068;-51
2023/06/16 03:14:01;;;;;;;4.40;2.63;;;30.50;37.30;;;;;;5037451;28;94083;-51
2023/06/16 03:16:29;;;;;;;3.03;2.33;;;30.40;37.30;;;;;;5037603;28;92641;-51
2023/06/16 03:18:58;;;;;;;3.23;2.50;;;30.40;37.30;;;;;;5037502;28;92024;-51
2023/06/16 03:21:26;;;;;;;3.53;2.70;;;30.40;37.30;;;;;;5037089;28;92115;-51
2023/06/16 03:23:54;;;;;;;4.70;3.33;;;30.40;37.30;;;;;;5036544;28;95234;-51
2023/06/16 03:26:24;;;;;;;4.73;2.80;;;30.40;37.30;;;;;;5036354;28;94773;-51
2023/06/16 03:28:53;;;;;;;4.67;3.57;;;30.40;37.30;;;;;;5037466;28;91935;-51
2023/06/16 03:31:21;;;;;;;5.73;3.30;;;30.40;37.30;;;;;;5037541;28;92652;-51
2023/06/16 03:33:49;;;;;;;4.57;3.27;;;30.40;37.20;;;;;;5037224;28;93154;-52
2023/06/16 03:36:18;;;;;;;5.47;3.60;;;30.40;37.20;;;;;;5036628;27;93940;-51
2023/06/16 03:38:46;;;;;;;6.00;3.33;;;30.40;37.20;;;;;;5037440;28;92284;-51
2023/06/16 03:41:14;;;;;;;5.87;3.33;;;30.40;37.10;;;;;;5037192;28;91337;-51
2023/06/16 03:43:43;;;;;;;6.73;3.73;;;30.40;37.10;;;;;;5036784;28;93091;-51
2023/06/16 03:46:11;;;;;;;6.13;3.63;;;30.40;37.20;;;;;;5037290;28;93736;-51
2023/06/16 03:48:40;;;;;;;5.00;3.40;;;30.40;37.10;;;;;;5037108;28;93580;-51
2023/06/16 03:51:08;;;;;;;6.10;3.10;;;30.40;37.10;;;;;;5035998;27;92534;-51
2023/06/16 03:53:36;;;;;;;4.33;2.83;;;30.40;37.10;;;;;;5036282;28;93287;-51
2023/06/16 03:56:04;;;;;;;5.00;2.60;;;30.40;37.00;;;;;;5035969;28;93898;-51
2023/06/16 03:58:32;;;;;;;4.07;2.80;;;30.40;37.00;;;;;;5036835;28;92068;-51
2023/06/16 04:01:03;;;;;;;4.67;2.83;;;30.30;36.90;;;;;;5036527;28;92113;-51
2023/06/16 04:03:31;;;;;;;3.20;2.47;;;30.40;37.00;;;;;;5041953;27;94133;-51
2023/06/16 04:06:02;;;;;;;3.13;2.40;;;30.30;36.90;;;;;;5054371;27;93919;-51
2023/06/16 04:08:31;;;;;;;3.80;2.33;;;30.40;36.90;;;;;;5060088;27;91962;-51
2023/06/16 04:10:59;;;;;;;4.63;2.10;;;30.40;36.90;;;;;;5060015;27;92062;-51
2023/06/16 04:13:27;;;;;;;3.23;2.00;;;30.40;36.80;;;;;;5055391;27;95067;-51
2023/06/16 04:15:55;;;;;;;2.30;2.10;;;30.40;36.80;;;;;;5059309;27;95286;-51
2023/06/16 04:18:24;;;;;;;2.73;1.53;;;30.40;36.70;;;;;;5059384;27;91940;-51
2023/06/16 04:20:52;;;;;;;3.67;2.07;;;30.40;36.70;;;;;;5058893;27;92336;-51
2023/06/16 04:23:20;;;;;;;3.93;2.00;;;30.40;37.40;;;;;;5058812;27;94237;-51
2023/06/16 04:25:48;;;;;;;2.20;1.67;;;30.40;36.60;;;;;;5059433;27;94397;-51
2023/06/16 04:28:17;;;;;;;3.37;1.73;;;30.60;36.40;;;;;;5059413;27;91827;-51
2023/06/16 04:30:45;;;;;;;4.07;1.70;;;30.90;36.10;;;;;;5060136;27;91315;-51
2023/06/16 04:33:13;;;;;;;1.67;1.57;;;31.30;35.80;;;;;;5059289;27;93039;-51
2023/06/16 04:35:42;;;;;;;4.00;1.70;;;31.50;35.70;;;;;;5059122;27;93840;-51
2023/06/16 04:38:11;;;;;;;1.67;1.57;;;31.80;35.20;;;;;;5059285;27;92902;-51
2023/06/16 04:40:39;;;;;;;2.60;1.60;;;32.10;35.00;;;;;;5059728;27;91967;-51
2023/06/16 04:43:07;;;;;;;2.50;1.60;;;32.40;34.70;;;;;;5059436;27;94296;-51
2023/06/16 04:45:35;;;;;;;1.93;1.43;;;32.60;34.50;;;;;;5059434;27;93942;-52
2023/06/16 04:48:03;;;;;;;2.00;1.50;;;32.70;34.30;;;;;;5054155;27;92767;-51
2023/06/16 04:50:31;;;;;;;1.97;1.60;;;32.80;34.20;;;;;;5059254;27;92110;-51
2023/06/16 04:53:03;;;;;;;2.77;1.50;;;32.90;34.00;;;;;;5059330;27;94130;-51
2023/06/16 04:55:31;;;;;;;2.33;1.40;;;33.00;33.80;;;;;;5059036;27;93867;-51
2023/06/16 04:57:59;;;;;;;3.87;1.63;;;33.10;33.80;;;;;;5059115;27;92243;-51
2023/06/16 05:00:29;;;;;;;2.37;1.30;;;33.00;33.80;;;;;;5058743;27;92105;-51
2023/06/16 05:02:57;;;;;;;2.43;1.20;;;32.80;33.90;;;;;;5057812;27;95049;-51
2023/06/16 05:05:26;;;;;;;2.70;1.47;;;32.60;34.10;;;;;;5058823;27;94543;-51
2023/06/16 05:07:54;;;;;;;1.10;1.00;;;32.40;34.20;;;;;;5058362;27;91894;-51
2023/06/16 05:10:23;;;;;;;2.00;1.30;;;32.20;34.30;;;;;;5058910;27;92117;-51
2023/06/16 05:12:51;;;;;;;1.83;1.17;;;32.00;35.00;;;;;;5058769;27;94397;-51
2023/06/16 05:15:19;;;;;;;1.43;1.10;;;31.90;34.40;;;;;;5058732;27;92661;-51
2023/06/16 05:17:47;;;;;;;4.17;1.27;;;31.80;34.50;;;;;;5058888;27;91990;-51
2023/06/16 05:20:16;;;;;;;2.10;1.50;;;31.70;34.60;;;;;;5058744;27;91375;-51
2023/06/16 05:22:44;;;;;;;1.70;1.30;;;31.60;35.20;;;;;;5058497;27;94285;-51
2023/06/16 05:25:12;;;;;;;1.33;1.13;;;31.60;34.60;;;;;;5053205;27;93968;-51
2023/06/16 05:27:42;;;;;;;2.37;1.00;;;31.50;34.70;;;;;;5057981;27;93011;-51
2023/06/16 05:30:11;;;;;;;1.27;1.03;;;31.50;34.70;;;;;;5058153;27;91955;-51
2023/06/16 05:32:39;;;;;;;2.57;1.33;;;31.50;34.80;;;;;;5057907;27;94016;-51
2023/06/16 05:35:08;;;;;;;3.23;1.20;;;31.50;34.80;;;;;;5058598;27;92870;-51
2023/06/16 05:37:36;;;;;;;1.53;1.17;;;31.40;34.70;;;;;;5058984;27;91895;-51
2023/06/16 05:40:05;;;;;;;1.00;0.90;;;31.40;34.70;;;;;;5058670;27;92164;-51
2023/06/16 05:42:33;;;;;;;1.17;1.07;;;31.40;34.70;;;;;;5058465;27;94129;-51
2023/06/16 05:45:03;;;;;;;1.00;0.90;;;31.40;34.70;;;;;;5057827;27;92918;-51
2023/06/16 05:47:31;;;;;;;3.90;0.90;;;31.40;34.70;;;;;;5058808;27;91988;-51
2023/06/16 05:49:59;;;;;;;1.17;1.07;;;31.40;34.70;;;;;;5058228;27;91936;-51
2023/06/16 05:52:29;;;;;;;1.40;0.83;;;31.40;34.70;;;;;;5056681;27;95144;-51
2023/06/16 05:54:58;;;;;;;1.30;1.10;;;31.40;34.60;;;;;;5058013;27;94719;-51
2023/06/16 05:57:26;;;;;;;1.43;0.90;;;31.40;34.70;;;;;;5058809;27;91992;-51
2023/06/16 05:59:55;;;;;;;1.27;0.90;;;31.40;34.70;;;;;;5057175;27;92131;-51
2023/06/16 06:02:25;;;;;;;1.10;0.90;;;31.40;34.60;;;;;;5058323;27;94361;-51
2023/06/16 06:04:53;;;;;;;1.97;1.20;;;31.50;34.70;;;;;;5057689;27;93732;-51
2023/06/16 06:07:21;;;;;;;1.23;1.00;;;31.50;34.70;;;;;;5058554;27;91926;-51
2023/06/16 06:09:49;;;;;;;1.37;1.10;;;31.50;34.70;;;;;;5058167;27;91313;-51
2023/06/16 06:12:17;;;;;;;2.03;1.17;;;31.40;34.60;;;;;;5057679;27;94170;-51
2023/06/16 06:14:45;;;;;;;1.20;1.00;;;31.40;34.60;;;;;;5059019;27;93766;-51
2023/06/16 06:17:13;;;;;;;4.90;1.50;;;31.50;34.60;;;;;;5061910;27;92931;-51
2023/06/16 06:19:43;;;;;;;0.93;0.83;;;31.50;34.60;;;;;;5061019;27;92066;-51
2023/06/16 06:22:11;;;;;;;2.17;1.20;;;31.40;34.50;;;;;;5061307;27;94271;-51
2023/06/16 06:24:39;;;;;;;3.03;1.33;;;31.40;34.60;;;;;;5060857;27;92911;-51
2023/06/16 06:27:10;;;;;;;2.00;1.30;;;31.40;34.60;;;;;;5061941;27;91771;-51
2023/06/16 06:29:38;;;;;;;2.00;1.40;;;31.40;34.50;;;;;;5061428;27;91922;-51
2023/06/16 06:32:08;;;;;;;3.47;2.07;;;31.40;34.50;;;;;;5061161;27;94307;-51
2023/06/16 06:34:36;;;;;;;3.40;2.10;;;31.40;34.50;;;;;;5061709;27;92733;-52
2023/06/16 06:37:05;;;;;;;3.60;2.27;;;31.40;34.50;;;;;;5061751;27;91995;-51
2023/06/16 06:39:33;;;;;;;3.57;2.07;;;31.40;34.50;;;;;;5061056;27;92181;-51
2023/06/16 06:42:02;;;;;;;4.53;2.00;;;31.50;34.60;;;;;;5060572;27;95333;-51
2023/06/16 06:44:30;;;;;;;6.33;2.20;;;31.40;34.40;;;;;;5060357;27;93949;-51
2023/06/16 06:46:58;;;;;;;4.23;2.13;;;31.50;34.50;;;;;;5061763;27;91733;-51
2023/06/16 06:49:26;;;;;;;2.53;2.30;;;31.50;34.40;;;;;;5060752;27;92096;-51
2023/06/16 06:51:54;;;;;;;3.77;1.97;;;31.50;34.40;;;;;;5061283;27;94294;-51
2023/06/16 06:54:24;;;;;;;3.50;2.23;;;31.50;34.40;;;;;;5061116;27;93689;-51
2023/06/16 06:56:52;;;;;;;2.10;1.80;;;31.50;34.40;;;;;;5061348;27;91951;-51
2023/06/16 06:59:20;;;;;;;3.43;2.17;;;31.50;34.40;;;;;;5060829;27;91380;-50
2023/06/16 07:01:49;;;;;;;3.73;1.80;;;31.40;34.40;;;;;;5060635;27;93047;-51
2023/06/16 07:04:17;;;;;;;2.00;1.80;;;31.40;34.40;;;;;;5060951;27;93167;-51
2023/06/16 07:06:46;;;;;;;2.00;1.80;;;31.40;34.40;;;;;;5060935;27;92812;-51
2023/06/16 07:09:14;;;;;;;2.00;1.50;;;31.50;34.40;;;;;;5061016;27;92164;-51
2023/06/16 07:11:58;;;;;;;2.17;1.67;;;31.50;34.40;;;;;;5059892;27;94701;-51
2023/06/16 07:14:29;;;;;;;3.63;1.37;;;31.50;34.40;;;;;;5061093;27;93778;-51
2023/06/16 07:16:57;;;;;;;2.10;1.53;;;31.50;34.40;;;;;;5061340;27;91829;-51
2023/06/16 07:19:26;;;;;;;2.73;1.70;;;31.50;34.40;;;;;;5060596;27;92125;-51
2023/06/16 07:21:54;;;;;;;1.87;1.63;;;31.50;34.40;;;;;;5059613;27;94332;-52
2023/06/16 07:24:22;;;;;;;3.07;1.30;;;31.50;34.30;;;;;;5060422;27;93909;-52
2023/06/16 07:26:50;;;;;;;3.03;1.27;;;31.50;34.30;;;;;;5060045;27;91979;-51
2023/06/16 07:29:20;;;;;;;1.77;1.43;;;31.50;34.30;;;;;;5060352;27;91946;-51
2023/06/16 07:31:48;;;;;;;2.10;1.47;;;31.50;34.30;;;;;;5059882;27;95142;-51
2023/06/16 07:34:16;;;;;;;1.33;1.13;;;31.50;35.00;;;;;;5060176;27;93867;-51
2023/06/16 07:36:44;;;;;;;1.63;1.20;;;31.50;34.30;;;;;;5060973;27;91981;-52
2023/06/16 07:39:13;;;;;;;3.70;1.70;;;31.50;34.30;;;;;;5060473;27;92043;-51
2023/06/16 07:41:41;;;;;;;2.30;1.47;;;31.50;34.30;;;;;;5060032;27;94455;-51
2023/06/16 07:44:09;;;;;;;2.30;1.37;;;31.50;34.30;;;;;;5059550;27;93885;-52
2023/06/16 07:46:39;;;;;;;1.67;1.10;;;31.50;34.30;;;;;;5060518;27;91823;-51
2023/06/16 07:49:07;;;;;;;2.20;1.40;;;31.50;34.20;;;;;;5060178;27;91230;-51
2023/06/16 07:51:35;;;;;;;1.40;1.30;;;31.50;34.30;;;;;;5059374;27;94241;-53
2023/06/16 07:54:04;;;;;;;2.00;1.00;;;31.50;34.20;;;;;;5060034;27;93839;-51
2023/06/16 07:56:32;;;;;;;2.60;1.10;;;31.50;34.20;;;;;;5059802;27;93019;-51
2023/06/16 07:59:00;;;;;;;2.20;1.03;;;31.50;34.20;;;;;;5059552;27;92087;-51
2023/06/16 08:01:28;;;;;;;1.30;1.20;;;31.50;34.20;;;;;;5059987;27;94175;-51
2023/06/16 08:03:58;;;;;;;1.53;1.13;;;31.50;34.20;;;;;;5059661;27;93710;-51
2023/06/16 08:06:27;;;;;;;0.93;0.80;;;31.50;34.20;;;;;;5060470;27;91852;-51
2023/06/16 08:08:56;;;;;;;1.53;1.00;;;31.50;34.20;;;;;;5059831;27;92264;-51
2023/06/16 08:11:24;;;;;;;4.67;1.10;;;31.50;34.90;;;;;;5059851;27;92879;-52
2023/06/16 08:13:53;;;;;;;1.93;1.20;;;31.50;34.20;;;;;;5060577;27;92504;-51
2023/06/16 08:16:21;;;;;;;1.37;1.20;;;31.50;34.20;;;;;;5060231;27;91780;-51
2023/06/16 08:18:50;;;;;;;1.33;1.07;;;31.50;34.80;;;;;;5059579;27;92056;-52
2023/06/16 08:21:20;;;;;;;1.13;0.90;;;31.50;34.10;;;;;;5058745;27;95117;-51
2023/06/16 08:23:48;;;;;;;1.40;1.10;;;31.50;34.10;;;;;;5059614;27;94786;-51
2023/06/16 08:26:16;;;;;;;1.57;1.47;;;31.50;34.10;;;;;;5059795;27;92067;-51
2023/06/16 08:28:44;;;;;;;2.80;1.10;;;31.50;34.10;;;;;;5059551;27;91921;-51
2023/06/16 08:31:13;;;;;;;1.07;0.90;;;31.50;34.10;;;;;;5059605;27;94042;-51
2023/06/16 08:33:41;;;;;;;1.00;0.90;;;31.50;34.00;;;;;;5059632;27;93987;-51
2023/06/16 08:36:09;;;;;;;1.60;1.50;;;31.50;34.00;;;;;;5059362;27;91940;-51
2023/06/16 08:38:39;;;;;;;1.60;1.07;;;31.50;34.00;;;;;;5058870;27;91344;-51
2023/06/16 08:41:10;;;;;;;1.90;0.83;;;31.40;33.90;;;;;;5058970;27;94127;-52
2023/06/16 08:43:38;;;;;;;1.83;1.43;;;31.40;33.90;;;;;;5059451;27;91999;-51
2023/06/16 08:46:08;;;;;;;0.83;0.80;;;31.40;33.90;;;;;;5059357;27;93126;-51
2023/06/16 08:48:37;;;;;;;1.23;0.97;;;31.40;33.90;;;;;;5059581;27;92068;-52
2023/06/16 08:51:05;;;;;;;1.00;0.87;;;31.50;34.00;;;;;;5058632;27;94187;-52
2023/06/16 08:53:33;;;;;;;1.53;0.97;;;31.40;33.90;;;;;;5058765;27;92850;-51
2023/06/16 08:56:03;;;;;;;0.70;0.70;;;31.40;33.80;;;;;;5040051;27;92111;-52
2023/06/16 08:58:31;;;;;;;1.43;1.00;;;31.40;33.80;;;;;;5038784;28;92052;-52
2023/06/16 09:00:59;;;;;;;1.10;1.00;;;31.40;33.80;;;;;;5038787;28;94157;-52
2023/06/16 09:03:32;;;;;;;1.43;0.77;;;31.40;33.80;;;;;;5038728;28;94087;-53
2023/06/16 09:06:01;;;;;;;1.03;0.93;;;31.30;33.80;;;;;;5039107;28;92056;-51
2023/06/16 09:08:29;;;;;;;1.47;1.00;;;31.40;33.80;;;;;;5037662;28;92190;-51
2023/06/16 09:10:57;;;;;;;2.60;0.97;;;31.40;33.80;;;;;;5038078;28;95280;-51
2023/06/16 09:13:27;;;;;;;1.27;0.97;;;31.40;33.80;;;;;;5038682;28;94909;-52
2023/06/16 09:15:57;;;;;;;2.57;1.30;;;31.40;33.80;;;;;;5039286;28;91975;-52
2023/06/16 09:18:26;;;;;;;1.77;0.80;;;31.40;33.80;;;;;;5038719;28;91873;-51
2023/06/16 09:20:54;;;;;;;3.23;1.10;;;31.40;33.90;;;;;;5037981;28;94186;-51
2023/06/16 09:23:29;;;;;;;2.03;1.23;;;31.40;33.90;;;;;;5036646;28;92032;-51
2023/06/16 09:25:57;;;;;;;2.17;1.30;;;31.40;33.90;;;;;;5038017;28;92075;-52
2023/06/16 09:28:37;;;;;;;0.97;0.90;;;31.40;33.80;;;;;;5040274;27;91465;-52
2023/06/16 09:31:05;;;;;;;1.40;1.20;;;31.40;33.80;;;;;;5037441;27;94508;-51
2023/06/16 09:33:40;;;;;;;1.07;1.00;;;31.50;33.90;;;;;;5046002;27;92605;-51
2023/06/16 09:36:08;;;;;;;1.17;0.90;;;31.40;33.80;;;;;;5058218;27;92946;-51
2023/06/16 09:38:37;;;;;;;1.27;0.97;;;31.40;33.70;;;;;;5052252;27;92084;-51
2023/06/16 09:41:08;;;;;;;1.30;1.00;;;31.40;33.70;;;;;;5046873;27;94090;-52
2023/06/16 09:43:38;;;;;;;1.37;0.90;;;31.50;33.80;;;;;;5057501;27;93838;-51
2023/06/16 09:46:09;;;;;;;0.97;0.80;;;31.40;33.70;;;;;;5042536;27;92047;-51
2023/06/16 09:48:45;;;;;;;2.77;0.83;;;31.50;33.70;;;;;;5037674;28;92275;-51
2023/06/16 09:51:17;;;;;;;1.30;0.77;;;31.40;33.70;;;;;;5037215;28;92144;-52
2023/06/16 09:53:45;;;;;;;1.10;1.00;;;31.50;33.70;;;;;;5055426;27;93892;-51
2023/06/16 09:56:14;;;;;;;0.97;0.80;;;31.50;33.70;;;;;;5058345;27;91929;-52
2023/06/16 09:58:43;;;;;;;1.03;0.93;;;31.50;33.70;;;;;;5038088;28;92077;-51
2023/06/16 10:01:13;;;;;;;1.83;0.67;;;31.50;33.70;;;;;;5036566;28;95145;-51
2023/06/16 10:03:43;;;;;;;1.10;0.90;;;31.50;33.50;;;;;;5037891;28;94723;-52
2023/06/16 10:06:14;;;;;;;1.03;0.90;;;31.50;33.50;;;;;;5037045;28;91768;-51
2023/06/16 10:08:42;;;;;;;1.40;0.97;;;31.50;33.50;;;;;;5037374;28;92098;-51
2023/06/16 10:11:11;;;;;;;1.77;1.13;;;31.50;33.50;;;;;;5037315;28;93108;-52
2023/06/16 10:13:39;;;;;;;1.90;0.87;;;31.50;33.40;;;;;;5037497;28;93987;-52
2023/06/16 10:16:09;;;;;;;1.00;0.90;;;31.60;33.40;;;;;;5038110;28;92032;-51
2023/06/16 10:18:37;;;;;;;2.73;1.00;;;31.60;33.40;;;;;;5038292;28;91339;-52
2023/06/16 10:21:06;;;;;;;4.40;1.53;;;31.50;33.40;;;;;;5036770;28;94091;-52
2023/06/16 10:23:34;;;;;;;3.27;1.07;;;31.60;33.30;;;;;;5037013;28;93159;-52
2023/06/16 10:26:02;;;;;;;3.20;1.57;;;31.60;33.20;;;;;;5037162;28;92800;-52
2023/06/16 10:28:30;;;;;;;0.80;0.80;;;31.60;33.20;;;;;;5037322;28;92102;-52
2023/06/16 10:30:59;;;;;;;1.40;1.00;;;31.60;33.20;;;;;;5036802;28;94334;-52
2023/06/16 10:33:28;;;;;;;1.40;0.90;;;31.60;33.20;;;;;;5037316;28;94081;-51
2023/06/16 10:35:57;;;;;;;1.27;1.00;;;31.60;33.10;;;;;;5037452;28;92063;-51
2023/06/16 10:38:43;;;;;;;0.83;0.83;;;31.50;32.90;;;;;;5037601;28;92059;-51
2023/06/16 10:41:15;;;;;;;2.73;1.10;;;31.60;32.90;;;;;;5036933;28;94277;-51
2023/06/16 10:43:44;;;;;;;1.27;0.83;;;31.60;32.90;;;;;;5037497;28;93837;-51
2023/06/16 10:46:15;;;;;;;1.70;1.10;;;31.60;32.80;;;;;;5036747;28;91935;-51
2023/06/16 10:51:52;;;;;;;1.50;1.10;;;31.60;32.80;;;;;;5076589;27;1360198;-52
2023/06/16 10:54:36;;;;;;;2.60;1.07;;;31.60;32.60;;;;;;5099968;27;87255;-51
2023/06/16 10:57:05;;;;;;;1.93;1.27;;;31.60;32.60;;;;;;5100183;27;87334;-52
2023/06/16 10:59:55;;;;;;;1.23;1.13;;;31.60;32.50;;;;;;5093353;27;90918;-52
2023/06/16 11:02:24;;;;;;;1.47;1.03;;;31.60;32.50;;;;;;5080594;27;89203;-52
2023/06/16 11:05:14;;;;;;;1.00;0.90;;;31.70;32.40;;;;;;5094697;27;87535;-52
2023/06/16 11:07:46;;;;;;;1.50;1.10;;;31.70;32.40;;;;;;5101407;27;87568;-52
2023/06/16 11:10:18;;;;;;;1.90;1.27;;;31.70;32.30;;;;;;5099878;27;89598;-52
2023/06/16 11:12:47;;;;;;;1.30;1.20;;;31.70;32.20;;;;;;5082449;27;87430;-52
2023/06/16 11:15:15;;;;;;;2.07;1.20;;;31.70;32.10;;;;;;5079830;27;87321;-52
2023/06/16 11:17:43;;;;;;;1.77;1.10;;;31.70;32.00;;;;;;5079139;27;87665;-52
2023/06/16 11:20:13;;;;;;;1.20;1.10;;;31.70;32.00;;;;;;5079075;27;88517;-52
2023/06/16 11:22:42;;;;;;;1.30;1.20;;;31.70;31.90;;;;;;5079213;27;87559;-52
2023/06/16 11:25:12;;;;;;;1.00;0.90;;;31.80;31.90;;;;;;5078905;27;87493;-52
2023/06/16 11:27:41;;;;;;;1.33;0.93;;;31.80;31.80;;;;;;5079718;27;87558;-51
2023/06/16 11:30:11;;;;;;;1.30;1.20;;;31.80;31.70;;;;;;5079090;27;88605;-52
2023/06/16 11:32:40;;;;;;;1.20;1.07;;;31.80;31.70;;;;;;5078795;27;87863;-52
2023/06/16 11:35:09;;;;;;;1.10;1.00;;;31.90;31.80;;;;;;5079362;27;87326;-52
2023/06/16 11:37:46;;;;;;;2.40;1.17;;;31.90;31.80;;;;;;5079377;27;87614;-52
2023/06/16 11:40:17;;;;;;;4.43;1.40;;;31.90;31.70;;;;;;5078440;27;89933;-52
2023/06/16 11:42:52;;;;;;;1.60;1.37;;;31.90;31.70;;;;;;5078708;27;89040;-52
2023/06/16 11:45:20;;;;;;;1.23;1.00;;;31.90;31.70;;;;;;5078991;27;87599;-52
2023/06/16 11:47:48;;;;;;;2.07;1.20;;;31.90;31.70;;;;;;5079058;27;87655;-52
2023/06/16 11:50:17;;;;;;;1.20;1.10;;;31.90;31.80;;;;;;5078108;27;88530;-52
2023/06/16 11:52:46;;;;;;;1.60;1.20;;;32.00;31.80;;;;;;5078176;27;88052;-52
2023/06/16 11:55:15;;;;;;;1.40;1.10;;;31.90;31.80;;;;;;5078642;27;87404;-52
2023/06/16 11:57:44;;;;;;;1.53;0.90;;;32.00;31.80;;;;;;5078526;27;87246;-52
2023/06/16 12:00:13;;;;;;;1.40;1.20;;;32.00;31.90;;;;;;5078583;27;88726;-52
2023/06/16 12:02:43;;;;;;;1.43;0.93;;;32.10;32.00;;;;;;5066481;27;88154;-52
2023/06/16 12:05:18;;;;;;;0.93;0.93;;;32.10;31.90;;;;;;5065474;27;87275;-52
2023/06/16 12:07:46;;;;;;;1.50;0.93;;;32.10;32.00;;;;;;5065464;27;87464;-52
2023/06/16 12:10:16;;;;;;;2.50;1.20;;;32.10;32.00;;;;;;5064823;27;88612;-52
2023/06/16 12:12:44;;;;;;;1.83;1.20;;;32.10;32.00;;;;;;5064697;27;88039;-52
2023/06/16 12:15:14;;;;;;;1.63;1.27;;;32.10;32.00;;;;;;5065079;27;87318;-52
2023/06/16 12:17:42;;;;;;;2.73;1.27;;;32.10;32.00;;;;;;5064807;27;87754;-52
2023/06/16 12:20:12;;;;;;;1.90;1.07;;;32.20;32.10;;;;;;5064533;27;88458;-52
2023/06/16 12:22:40;;;;;;;1.73;0.90;;;32.20;32.20;;;;;;5064102;27;87550;-52
2023/06/16 12:25:13;;;;;;;0.93;0.93;;;32.20;32.20;;;;;;5064136;27;87780;-52
2023/06/16 12:27:44;;;;;;;1.97;1.20;;;32.20;32.20;;;;;;5064424;27;87668;-52
2023/06/16 12:30:13;;;;;;;1.03;1.00;;;32.20;32.30;;;;;;5063935;27;88523;-52
2023/06/16 12:32:42;;;;;;;0.93;0.80;;;32.20;32.30;;;;;;5064100;27;87355;-53
2023/06/16 12:35:11;;;;;;;3.03;0.90;;;32.20;32.30;;;;;;5064655;27;87173;-52
2023/06/16 12:37:41;;;;;;;2.43;0.90;;;32.20;32.40;;;;;;5064791;27;87065;-52
2023/06/16 12:40:11;;;;;;;1.07;1.00;;;32.20;32.40;;;;;;5064675;27;90629;-52
2023/06/16 12:42:41;;;;;;;1.00;0.90;;;32.20;32.40;;;;;;5064127;27;88136;-52
2023/06/16 12:45:12;;;;;;;1.23;0.80;;;32.20;32.40;;;;;;5063099;27;87800;-52
2023/06/16 12:47:41;;;;;;;1.10;1.00;;;32.30;32.50;;;;;;5064694;27;87547;-52
2023/06/16 12:50:10;;;;;;;1.43;1.00;;;32.30;32.50;;;;;;5063564;27;87419;-52
2023/06/16 12:52:38;;;;;;;1.43;0.80;;;32.30;32.40;;;;;;5064054;27;89228;-52
2023/06/16 12:55:07;;;;;;;1.07;0.90;;;32.40;32.50;;;;;;5063658;27;87306;-52
2023/06/16 12:57:36;;;;;;;1.20;0.90;;;32.40;32.50;;;;;;5064110;27;87239;-52
2023/06/16 13:00:05;;;;;;;1.37;0.87;;;32.40;32.50;;;;;;5063418;27;88709;-52